sensor_id;sensor_type;location;lat;lon;timestamp;P1;durP1;ratioP1;P2;durP2;ratioP2
13973;SDS011;7060;43.770;4.008;2023-04-03T00:01:23;0.00;;;0.00;;
13973;SDS011;7060;43.770;4.008;2023-04-03T00:03:52;0.10;;;0.00;;
13973;SDS011;7060;43.770;4.008;2023-04-03T00:06:20;0.00;;;0.00;;
13973;SDS011;7060;43.770;4.008;2023-04-03T00:08:51;0.00;;;0.00;;
13973;SDS011;7060;43.770;4.008;2023-04-03T00:11:20;0.00;;;0.00;;
13973;SDS011;7060;43.770;4.008;2023-04-03T00:13:48;0.00;;;0.00;;
13973;SDS011;7060;43.770;4.008;2023-04-03T00:16:17;0.00;;;0.00;;
13973;SDS011;7060;43.770;4.008;2023-04-03T00:18:45;0.00;;;0.00;;
13973;SDS011;7060;43.770;4.008;2023-04-03T00:21:14;0.00;;;0.00;;
13973;SDS011;7060;43.770;4.008;2023-04-03T00:23:43;0.03;;;0.00;;
13973;SDS011;7060;43.770;4.008;2023-04-03T00:26:12;0.20;;;0.00;;
13973;SDS011;7060;43.770;4.008;2023-04-03T00:28:41;0.00;;;0.00;;
13973;SDS011;7060;43.770;4.008;2023-04-03T00:31:10;0.00;;;0.00;;
13973;SDS011;7060;43.770;4.008;2023-04-03T00:33:38;0.00;;;0.00;;
13973;SDS011;7060;43.770;4.008;2023-04-03T00:36:07;0.03;;;0.00;;
13973;SDS011;7060;43.770;4.008;2023-04-03T00:38:37;0.00;;;0.00;;
13973;SDS011;7060;43.770;4.008;2023-04-03T00:41:06;0.00;;;0.00;;
13973;SDS011;7060;43.770;4.008;2023-04-03T00:43:36;0.00;;;0.00;;
13973;SDS011;7060;43.770;4.008;2023-04-03T00:46:05;0.10;;;0.10;;
13973;SDS011;7060;43.770;4.008;2023-04-03T00:48:34;0.00;;;0.00;;
13973;SDS011;7060;43.770;4.008;2023-04-03T00:51:07;0.00;;;0.00;;
13973;SDS011;7060;43.770;4.008;2023-04-03T00:53:40;0.00;;;0.00;;
13973;SDS011;7060;43.770;4.008;2023-04-03T00:56:12;0.00;;;0.00;;
13973;SDS011;7060;43.770;4.008;2023-04-03T00:58:46;0.10;;;0.10;;
13973;SDS011;7060;43.770;4.008;2023-04-03T01:01:19;0.00;;;0.00;;
13973;SDS011;7060;43.770;4.008;2023-04-03T01:03:50;0.37;;;0.10;;
13973;SDS011;7060;43.770;4.008;2023-04-03T01:06:20;0.00;;;0.00;;
13973;SDS011;7060;43.770;4.008;2023-04-03T01:08:52;0.00;;;0.00;;
13973;SDS011;7060;43.770;4.008;2023-04-03T01:11:22;0.00;;;0.00;;
13973;SDS011;7060;43.770;4.008;2023-04-03T01:13:53;0.00;;;0.00;;
13973;SDS011;7060;43.770;4.008;2023-04-03T01:16:23;0.00;;;0.00;;
13973;SDS011;7060;43.770;4.008;2023-04-03T01:18:52;0.00;;;0.00;;
13973;SDS011;7060;43.770;4.008;2023-04-03T01:21:28;0.00;;;0.00;;
13973;SDS011;7060;43.770;4.008;2023-04-03T01:24:19;0.57;;;0.00;;
13973;SDS011;7060;43.770;4.008;2023-04-03T01:26:55;0.10;;;0.00;;
13973;SDS011;7060;43.770;4.008;2023-04-03T01:29:25;0.00;;;0.00;;
13973;SDS011;7060;43.770;4.008;2023-04-03T01:31:56;0.00;;;0.00;;
13973;SDS011;7060;43.770;4.008;2023-04-03T01:34:26;0.10;;;0.10;;
13973;SDS011;7060;43.770;4.008;2023-04-03T01:36:56;0.00;;;0.00;;
13973;SDS011;7060;43.770;4.008;2023-04-03T01:39:24;0.00;;;0.00;;
13973;SDS011;7060;43.770;4.008;2023-04-03T01:41:53;0.10;;;0.00;;
13973;SDS011;7060;43.770;4.008;2023-04-03T01:44:29;0.00;;;0.00;;
13973;SDS011;7060;43.770;4.008;2023-04-03T01:47:00;0.00;;;0.00;;
13973;SDS011;7060;43.770;4.008;2023-04-03T01:49:29;0.00;;;0.00;;
13973;SDS011;7060;43.770;4.008;2023-04-03T01:51:58;0.10;;;0.00;;
13973;SDS011;7060;43.770;4.008;2023-04-03T01:54:26;0.00;;;0.00;;
13973;SDS011;7060;43.770;4.008;2023-04-03T01:56:55;1.27;;;0.00;;
13973;SDS011;7060;43.770;4.008;2023-04-03T01:59:24;0.00;;;0.00;;
13973;SDS011;7060;43.770;4.008;2023-04-03T02:01:53;0.00;;;0.00;;
13973;SDS011;7060;43.770;4.008;2023-04-03T02:04:23;0.10;;;0.00;;
13973;SDS011;7060;43.770;4.008;2023-04-03T02:06:51;0.00;;;0.00;;
13973;SDS011;7060;43.770;4.008;2023-04-03T02:09:20;0.00;;;0.00;;
13973;SDS011;7060;43.770;4.008;2023-04-03T02:11:48;0.00;;;0.00;;
13973;SDS011;7060;43.770;4.008;2023-04-03T02:14:18;0.10;;;0.03;;
13973;SDS011;7060;43.770;4.008;2023-04-03T02:16:48;0.10;;;0.00;;
13973;SDS011;7060;43.770;4.008;2023-04-03T02:19:17;0.00;;;0.00;;
13973;SDS011;7060;43.770;4.008;2023-04-03T02:21:46;0.43;;;0.00;;
13973;SDS011;7060;43.770;4.008;2023-04-03T02:24:15;0.87;;;0.00;;
13973;SDS011;7060;43.770;4.008;2023-04-03T02:26:43;0.20;;;0.00;;
13973;SDS011;7060;43.770;4.008;2023-04-03T02:29:12;0.10;;;0.00;;
13973;SDS011;7060;43.770;4.008;2023-04-03T02:31:41;0.00;;;0.00;;
13973;SDS011;7060;43.770;4.008;2023-04-03T02:34:09;0.33;;;0.00;;
13973;SDS011;7060;43.770;4.008;2023-04-03T02:36:38;0.00;;;0.00;;
13973;SDS011;7060;43.770;4.008;2023-04-03T02:39:10;0.00;;;0.00;;
13973;SDS011;7060;43.770;4.008;2023-04-03T02:41:38;0.00;;;0.00;;
13973;SDS011;7060;43.770;4.008;2023-04-03T02:44:13;0.00;;;0.00;;
13973;SDS011;7060;43.770;4.008;2023-04-03T02:46:41;0.00;;;0.00;;
13973;SDS011;7060;43.770;4.008;2023-04-03T02:49:10;0.20;;;0.03;;
13973;SDS011;7060;43.770;4.008;2023-04-03T02:51:40;0.07;;;0.00;;
13973;SDS011;7060;43.770;4.008;2023-04-03T02:54:10;0.10;;;0.10;;
13973;SDS011;7060;43.770;4.008;2023-04-03T02:56:42;0.00;;;0.00;;
13973;SDS011;7060;43.770;4.008;2023-04-03T02:59:11;0.00;;;0.00;;
13973;SDS011;7060;43.770;4.008;2023-04-03T03:01:40;0.10;;;0.00;;
13973;SDS011;7060;43.770;4.008;2023-04-03T03:04:09;0.00;;;0.00;;
13973;SDS011;7060;43.770;4.008;2023-04-03T03:06:38;0.60;;;0.00;;
13973;SDS011;7060;43.770;4.008;2023-04-03T03:09:11;0.10;;;0.00;;
13973;SDS011;7060;43.770;4.008;2023-04-03T03:11:41;0.00;;;0.00;;
13973;SDS011;7060;43.770;4.008;2023-04-03T03:14:10;0.00;;;0.00;;
13973;SDS011;7060;43.770;4.008;2023-04-03T03:16:38;0.00;;;0.00;;
13973;SDS011;7060;43.770;4.008;2023-04-03T03:19:09;0.00;;;0.00;;
13973;SDS011;7060;43.770;4.008;2023-04-03T03:21:37;0.00;;;0.00;;
13973;SDS011;7060;43.770;4.008;2023-04-03T03:24:06;0.00;;;0.00;;
13973;SDS011;7060;43.770;4.008;2023-04-03T03:26:36;0.20;;;0.10;;
13973;SDS011;7060;43.770;4.008;2023-04-03T03:29:05;0.20;;;0.10;;
13973;SDS011;7060;43.770;4.008;2023-04-03T03:31:33;0.00;;;0.00;;
13973;SDS011;7060;43.770;4.008;2023-04-03T03:34:02;0.00;;;0.00;;
13973;SDS011;7060;43.770;4.008;2023-04-03T03:36:30;0.00;;;0.00;;
13973;SDS011;7060;43.770;4.008;2023-04-03T03:38:59;1.30;;;0.10;;
13973;SDS011;7060;43.770;4.008;2023-04-03T03:41:28;0.00;;;0.00;;
13973;SDS011;7060;43.770;4.008;2023-04-03T03:43:58;0.10;;;0.10;;
13973;SDS011;7060;43.770;4.008;2023-04-03T03:46:29;0.10;;;0.10;;
13973;SDS011;7060;43.770;4.008;2023-04-03T03:48:58;0.37;;;0.10;;
13973;SDS011;7060;43.770;4.008;2023-04-03T03:51:27;0.00;;;0.00;;
13973;SDS011;7060;43.770;4.008;2023-04-03T03:53:56;0.20;;;0.10;;
13973;SDS011;7060;43.770;4.008;2023-04-03T03:56:27;0.00;;;0.00;;
13973;SDS011;7060;43.770;4.008;2023-04-03T03:58:56;0.00;;;0.00;;
13973;SDS011;7060;43.770;4.008;2023-04-03T04:01:26;0.20;;;0.10;;
13973;SDS011;7060;43.770;4.008;2023-04-03T04:03:55;0.00;;;0.00;;
13973;SDS011;7060;43.770;4.008;2023-04-03T04:06:28;0.00;;;0.00;;
13973;SDS011;7060;43.770;4.008;2023-04-03T04:09:01;0.00;;;0.00;;
13973;SDS011;7060;43.770;4.008;2023-04-03T04:11:30;0.07;;;0.07;;
13973;SDS011;7060;43.770;4.008;2023-04-03T04:14:01;0.10;;;0.10;;
13973;SDS011;7060;43.770;4.008;2023-04-03T04:16:30;0.00;;;0.00;;
13973;SDS011;7060;43.770;4.008;2023-04-03T04:19:04;0.00;;;0.00;;
13973;SDS011;7060;43.770;4.008;2023-04-03T04:21:36;0.30;;;0.17;;
13973;SDS011;7060;43.770;4.008;2023-04-03T04:24:05;0.10;;;0.00;;
13973;SDS011;7060;43.770;4.008;2023-04-03T04:26:34;0.30;;;0.10;;
13973;SDS011;7060;43.770;4.008;2023-04-03T04:29:05;0.63;;;0.17;;
13973;SDS011;7060;43.770;4.008;2023-04-03T04:31:34;0.13;;;0.10;;
13973;SDS011;7060;43.770;4.008;2023-04-03T04:34:03;0.00;;;0.00;;
13973;SDS011;7060;43.770;4.008;2023-04-03T04:36:32;0.10;;;0.00;;
13973;SDS011;7060;43.770;4.008;2023-04-03T04:39:01;0.10;;;0.03;;
13973;SDS011;7060;43.770;4.008;2023-04-03T04:41:30;0.10;;;0.10;;
13973;SDS011;7060;43.770;4.008;2023-04-03T04:44:01;0.10;;;0.10;;
13973;SDS011;7060;43.770;4.008;2023-04-03T04:46:31;0.10;;;0.10;;
13973;SDS011;7060;43.770;4.008;2023-04-03T04:49:00;0.20;;;0.10;;
13973;SDS011;7060;43.770;4.008;2023-04-03T04:51:30;0.03;;;0.00;;
13973;SDS011;7060;43.770;4.008;2023-04-03T04:54:11;1.00;;;0.07;;
13973;SDS011;7060;43.770;4.008;2023-04-03T04:56:39;0.10;;;0.10;;
13973;SDS011;7060;43.770;4.008;2023-04-03T04:59:08;0.17;;;0.10;;
13973;SDS011;7060;43.770;4.008;2023-04-03T05:01:38;0.40;;;0.10;;
13973;SDS011;7060;43.770;4.008;2023-04-03T05:04:12;0.10;;;0.10;;
13973;SDS011;7060;43.770;4.008;2023-04-03T05:06:42;0.10;;;0.10;;
13973;SDS011;7060;43.770;4.008;2023-04-03T05:09:15;0.10;;;0.10;;
13973;SDS011;7060;43.770;4.008;2023-04-03T05:11:45;0.10;;;0.10;;
13973;SDS011;7060;43.770;4.008;2023-04-03T05:14:15;1.17;;;0.13;;
13973;SDS011;7060;43.770;4.008;2023-04-03T05:16:46;0.10;;;0.10;;
13973;SDS011;7060;43.770;4.008;2023-04-03T05:19:19;0.17;;;0.10;;
13973;SDS011;7060;43.770;4.008;2023-04-03T05:21:48;0.23;;;0.10;;
13973;SDS011;7060;43.770;4.008;2023-04-03T05:24:17;0.17;;;0.10;;
13973;SDS011;7060;43.770;4.008;2023-04-03T05:26:46;0.77;;;0.10;;
13973;SDS011;7060;43.770;4.008;2023-04-03T05:29:16;0.83;;;0.20;;
13973;SDS011;7060;43.770;4.008;2023-04-03T05:31:47;0.40;;;0.10;;
13973;SDS011;7060;43.770;4.008;2023-04-03T05:34:17;0.87;;;0.23;;
13973;SDS011;7060;43.770;4.008;2023-04-03T05:36:48;0.10;;;0.10;;
13973;SDS011;7060;43.770;4.008;2023-04-03T05:39:17;0.27;;;0.10;;
13973;SDS011;7060;43.770;4.008;2023-04-03T05:41:46;0.20;;;0.10;;
13973;SDS011;7060;43.770;4.008;2023-04-03T05:44:15;0.30;;;0.20;;
13973;SDS011;7060;43.770;4.008;2023-04-03T05:46:47;0.20;;;0.10;;
13973;SDS011;7060;43.770;4.008;2023-04-03T05:49:15;0.20;;;0.10;;
13973;SDS011;7060;43.770;4.008;2023-04-03T05:51:44;0.40;;;0.20;;
13973;SDS011;7060;43.770;4.008;2023-04-03T05:54:21;0.20;;;0.10;;
13973;SDS011;7060;43.770;4.008;2023-04-03T05:56:57;0.20;;;0.10;;
13973;SDS011;7060;43.770;4.008;2023-04-03T05:59:27;0.40;;;0.20;;
13973;SDS011;7060;43.770;4.008;2023-04-03T06:01:59;0.30;;;0.10;;
13973;SDS011;7060;43.770;4.008;2023-04-03T06:04:28;0.20;;;0.10;;
13973;SDS011;7060;43.770;4.008;2023-04-03T06:06:57;0.10;;;0.10;;
13973;SDS011;7060;43.770;4.008;2023-04-03T06:09:26;0.10;;;0.10;;
13973;SDS011;7060;43.770;4.008;2023-04-03T06:11:58;0.47;;;0.20;;
13973;SDS011;7060;43.770;4.008;2023-04-03T06:14:28;0.10;;;0.10;;
13973;SDS011;7060;43.770;4.008;2023-04-03T06:16:58;0.20;;;0.20;;
13973;SDS011;7060;43.770;4.008;2023-04-03T06:19:28;0.10;;;0.10;;
13973;SDS011;7060;43.770;4.008;2023-04-03T06:21:57;0.10;;;0.10;;
13973;SDS011;7060;43.770;4.008;2023-04-03T06:24:25;0.20;;;0.20;;
13973;SDS011;7060;43.770;4.008;2023-04-03T06:26:54;0.30;;;0.30;;
13973;SDS011;7060;43.770;4.008;2023-04-03T06:29:23;0.37;;;0.37;;
13973;SDS011;7060;43.770;4.008;2023-04-03T06:31:52;0.40;;;0.40;;
13973;SDS011;7060;43.770;4.008;2023-04-03T06:34:21;0.90;;;0.90;;
13973;SDS011;7060;43.770;4.008;2023-04-03T06:36:50;1.70;;;1.60;;
13973;SDS011;7060;43.770;4.008;2023-04-03T06:39:19;3.87;;;3.77;;
13973;SDS011;7060;43.770;4.008;2023-04-03T06:41:50;5.87;;;5.67;;
13973;SDS011;7060;43.770;4.008;2023-04-03T06:44:27;8.80;;;8.40;;
13973;SDS011;7060;43.770;4.008;2023-04-03T06:46:55;7.37;;;7.07;;
13973;SDS011;7060;43.770;4.008;2023-04-03T06:49:25;6.83;;;6.63;;
13973;SDS011;7060;43.770;4.008;2023-04-03T06:51:54;6.07;;;5.87;;
13973;SDS011;7060;43.770;4.008;2023-04-03T06:54:24;6.47;;;6.27;;
13973;SDS011;7060;43.770;4.008;2023-04-03T06:56:52;4.73;;;4.53;;
13973;SDS011;7060;43.770;4.008;2023-04-03T06:59:21;2.90;;;2.80;;
13973;SDS011;7060;43.770;4.008;2023-04-03T07:01:49;0.70;;;0.70;;
13973;SDS011;7060;43.770;4.008;2023-04-03T07:04:20;0.10;;;0.10;;
13973;SDS011;7060;43.770;4.008;2023-04-03T07:06:50;0.47;;;0.10;;
13973;SDS011;7060;43.770;4.008;2023-04-03T07:09:19;0.07;;;0.00;;
13973;SDS011;7060;43.770;4.008;2023-04-03T07:11:48;0.10;;;0.00;;
13973;SDS011;7060;43.770;4.008;2023-04-03T07:14:16;0.10;;;0.00;;
13973;SDS011;7060;43.770;4.008;2023-04-03T07:16:45;0.10;;;0.00;;
13973;SDS011;7060;43.770;4.008;2023-04-03T07:19:13;0.20;;;0.00;;
13973;SDS011;7060;43.770;4.008;2023-04-03T07:21:42;0.10;;;0.00;;
13973;SDS011;7060;43.770;4.008;2023-04-03T07:24:12;0.00;;;0.00;;
13973;SDS011;7060;43.770;4.008;2023-04-03T07:26:42;0.03;;;0.00;;
13973;SDS011;7060;43.770;4.008;2023-04-03T07:29:11;0.00;;;0.00;;
13973;SDS011;7060;43.770;4.008;2023-04-03T07:31:40;0.23;;;0.10;;
13973;SDS011;7060;43.770;4.008;2023-04-03T07:34:10;0.10;;;0.00;;
13973;SDS011;7060;43.770;4.008;2023-04-03T07:36:38;0.00;;;0.00;;
13973;SDS011;7060;43.770;4.008;2023-04-03T07:39:07;0.00;;;0.00;;
13973;SDS011;7060;43.770;4.008;2023-04-03T07:41:37;0.00;;;0.00;;
13973;SDS011;7060;43.770;4.008;2023-04-03T07:44:05;0.00;;;0.00;;
13973;SDS011;7060;43.770;4.008;2023-04-03T07:46:36;0.00;;;0.00;;
13973;SDS011;7060;43.770;4.008;2023-04-03T07:49:04;0.00;;;0.00;;
13973;SDS011;7060;43.770;4.008;2023-04-03T07:51:33;0.00;;;0.00;;
13973;SDS011;7060;43.770;4.008;2023-04-03T07:54:02;0.00;;;0.00;;
13973;SDS011;7060;43.770;4.008;2023-04-03T07:56:31;0.00;;;0.00;;
13973;SDS011;7060;43.770;4.008;2023-04-03T07:59:01;0.00;;;0.00;;
13973;SDS011;7060;43.770;4.008;2023-04-03T08:01:30;0.00;;;0.00;;
13973;SDS011;7060;43.770;4.008;2023-04-03T08:04:00;0.00;;;0.00;;
13973;SDS011;7060;43.770;4.008;2023-04-03T08:06:30;0.03;;;0.00;;
13973;SDS011;7060;43.770;4.008;2023-04-03T08:09:12;0.00;;;0.00;;
13973;SDS011;7060;43.770;4.008;2023-04-03T08:11:42;0.07;;;0.00;;
13973;SDS011;7060;43.770;4.008;2023-04-03T08:14:13;0.00;;;0.00;;
13973;SDS011;7060;43.770;4.008;2023-04-03T08:16:45;0.00;;;0.00;;
13973;SDS011;7060;43.770;4.008;2023-04-03T08:19:15;3.83;;;0.00;;
13973;SDS011;7060;43.770;4.008;2023-04-03T08:21:52;0.00;;;0.00;;
13973;SDS011;7060;43.770;4.008;2023-04-03T08:24:21;0.00;;;0.00;;
13973;SDS011;7060;43.770;4.008;2023-04-03T08:26:50;0.00;;;0.00;;
13973;SDS011;7060;43.770;4.008;2023-04-03T08:29:20;0.00;;;0.00;;
13973;SDS011;7060;43.770;4.008;2023-04-03T08:31:49;0.00;;;0.00;;
13973;SDS011;7060;43.770;4.008;2023-04-03T08:34:17;0.00;;;0.00;;
13973;SDS011;7060;43.770;4.008;2023-04-03T08:36:47;0.00;;;0.00;;
13973;SDS011;7060;43.770;4.008;2023-04-03T08:39:15;0.00;;;0.00;;
13973;SDS011;7060;43.770;4.008;2023-04-03T08:41:44;0.10;;;0.00;;
13973;SDS011;7060;43.770;4.008;2023-04-03T08:44:15;0.00;;;0.00;;
13973;SDS011;7060;43.770;4.008;2023-04-03T08:46:58;0.00;;;0.00;;
13973;SDS011;7060;43.770;4.008;2023-04-03T08:49:33;0.00;;;0.00;;
13973;SDS011;7060;43.770;4.008;2023-04-03T08:52:09;0.00;;;0.00;;
13973;SDS011;7060;43.770;4.008;2023-04-03T08:54:46;0.20;;;0.00;;
13973;SDS011;7060;43.770;4.008;2023-04-03T08:57:19;0.30;;;0.00;;
13973;SDS011;7060;43.770;4.008;2023-04-03T08:59:54;0.17;;;0.10;;
13973;SDS011;7060;43.770;4.008;2023-04-03T09:02:26;0.30;;;0.10;;
13973;SDS011;7060;43.770;4.008;2023-04-03T09:04:57;0.20;;;0.10;;
13973;SDS011;7060;43.770;4.008;2023-04-03T09:07:31;0.00;;;0.00;;
13973;SDS011;7060;43.770;4.008;2023-04-03T09:10:05;0.23;;;0.23;;
13973;SDS011;7060;43.770;4.008;2023-04-03T09:12:37;0.00;;;0.00;;
13973;SDS011;7060;43.770;4.008;2023-04-03T09:15:10;0.20;;;0.07;;
13973;SDS011;7060;43.770;4.008;2023-04-03T09:18:04;0.00;;;0.00;;
13973;SDS011;7060;43.770;4.008;2023-04-03T09:20:39;0.03;;;0.03;;
13973;SDS011;7060;43.770;4.008;2023-04-03T09:23:16;1.50;;;0.10;;
13973;SDS011;7060;43.770;4.008;2023-04-03T09:25:50;0.10;;;0.00;;
13973;SDS011;7060;43.770;4.008;2023-04-03T09:28:21;0.03;;;0.00;;
13973;SDS011;7060;43.770;4.008;2023-04-03T09:30:50;0.30;;;0.10;;
13973;SDS011;7060;43.770;4.008;2023-04-03T09:33:20;0.00;;;0.00;;
13973;SDS011;7060;43.770;4.008;2023-04-03T09:35:50;0.00;;;0.00;;
13973;SDS011;7060;43.770;4.008;2023-04-03T09:38:21;0.13;;;0.00;;
13973;SDS011;7060;43.770;4.008;2023-04-03T09:40:51;0.00;;;0.00;;
13973;SDS011;7060;43.770;4.008;2023-04-03T09:43:33;1.70;;;0.20;;
13973;SDS011;7060;43.770;4.008;2023-04-03T09:46:28;0.10;;;0.10;;
13973;SDS011;7060;43.770;4.008;2023-04-03T09:49:00;0.13;;;0.00;;
13973;SDS011;7060;43.770;4.008;2023-04-03T09:51:35;0.53;;;0.10;;
13973;SDS011;7060;43.770;4.008;2023-04-03T09:57:10;0.00;;;0.00;;
13973;SDS011;7060;43.770;4.008;2023-04-03T09:59:42;2.53;;;0.03;;
13973;SDS011;7060;43.770;4.008;2023-04-03T10:02:21;0.67;;;0.00;;
13973;SDS011;7060;43.770;4.008;2023-04-03T10:04:58;0.20;;;0.03;;
13973;SDS011;7060;43.770;4.008;2023-04-03T10:07:36;0.00;;;0.00;;
13973;SDS011;7060;43.770;4.008;2023-04-03T10:10:19;0.10;;;0.00;;
13973;SDS011;7060;43.770;4.008;2023-04-03T10:13:01;0.00;;;0.00;;
13973;SDS011;7060;43.770;4.008;2023-04-03T10:15:33;0.00;;;0.00;;
13973;SDS011;7060;43.770;4.008;2023-04-03T10:18:13;0.00;;;0.00;;
13973;SDS011;7060;43.770;4.008;2023-04-03T10:20:59;0.00;;;0.00;;
13973;SDS011;7060;43.770;4.008;2023-04-03T10:23:39;2.73;;;0.10;;
13973;SDS011;7060;43.770;4.008;2023-04-03T10:26:14;0.77;;;0.00;;
13973;SDS011;7060;43.770;4.008;2023-04-03T10:28:56;0.10;;;0.00;;
13973;SDS011;7060;43.770;4.008;2023-04-03T10:31:29;0.63;;;0.10;;
13973;SDS011;7060;43.770;4.008;2023-04-03T10:34:05;1.00;;;0.07;;
13973;SDS011;7060;43.770;4.008;2023-04-03T10:36:43;1.77;;;0.07;;
13973;SDS011;7060;43.770;4.008;2023-04-03T10:39:20;0.40;;;0.00;;
13973;SDS011;7060;43.770;4.008;2023-04-03T10:42:00;0.00;;;0.00;;
13973;SDS011;7060;43.770;4.008;2023-04-03T10:44:48;0.20;;;0.00;;
13973;SDS011;7060;43.770;4.008;2023-04-03T10:47:24;0.40;;;0.10;;
13973;SDS011;7060;43.770;4.008;2023-04-03T10:50:06;2.63;;;0.10;;
13973;SDS011;7060;43.770;4.008;2023-04-03T10:53:00;0.63;;;0.03;;
13973;SDS011;7060;43.770;4.008;2023-04-03T10:55:34;0.10;;;0.00;;
13973;SDS011;7060;43.770;4.008;2023-04-03T10:58:08;0.17;;;0.00;;
13973;SDS011;7060;43.770;4.008;2023-04-03T11:00:47;0.00;;;0.00;;
13973;SDS011;7060;43.770;4.008;2023-04-03T11:03:23;0.00;;;0.00;;
13973;SDS011;7060;43.770;4.008;2023-04-03T11:05:59;0.27;;;0.00;;
13973;SDS011;7060;43.770;4.008;2023-04-03T11:08:32;0.30;;;0.00;;
13973;SDS011;7060;43.770;4.008;2023-04-03T11:11:06;9.00;;;0.40;;
13973;SDS011;7060;43.770;4.008;2023-04-03T11:13:40;8.30;;;0.47;;
13973;SDS011;7060;43.770;4.008;2023-04-03T11:16:12;1.83;;;0.20;;
13973;SDS011;7060;43.770;4.008;2023-04-03T11:18:46;0.07;;;0.00;;
13973;SDS011;7060;43.770;4.008;2023-04-03T11:21:19;0.53;;;0.00;;
13973;SDS011;7060;43.770;4.008;2023-04-03T11:23:52;0.97;;;0.10;;
13973;SDS011;7060;43.770;4.008;2023-04-03T11:26:27;7.80;;;0.50;;
13973;SDS011;7060;43.770;4.008;2023-04-03T11:29:01;0.07;;;0.00;;
13973;SDS011;7060;43.770;4.008;2023-04-03T11:31:40;2.20;;;0.20;;
13973;SDS011;7060;43.770;4.008;2023-04-03T11:34:21;1.13;;;0.20;;
13973;SDS011;7060;43.770;4.008;2023-04-03T11:37:01;0.83;;;0.10;;
13973;SDS011;7060;43.770;4.008;2023-04-03T11:39:35;0.00;;;0.00;;
13973;SDS011;7060;43.770;4.008;2023-04-03T11:42:13;1.20;;;0.13;;
13973;SDS011;7060;43.770;4.008;2023-04-03T11:44:44;0.60;;;0.10;;
13973;SDS011;7060;43.770;4.008;2023-04-03T11:47:13;0.10;;;0.10;;
13973;SDS011;7060;43.770;4.008;2023-04-03T11:50:31;0.10;;;0.00;;
13973;SDS011;7060;43.770;4.008;2023-04-03T11:53:27;0.03;;;0.00;;
13973;SDS011;7060;43.770;4.008;2023-04-03T11:56:00;0.10;;;0.10;;
13973;SDS011;7060;43.770;4.008;2023-04-03T11:58:33;0.10;;;0.00;;
13973;SDS011;7060;43.770;4.008;2023-04-03T12:01:04;0.10;;;0.10;;
13973;SDS011;7060;43.770;4.008;2023-04-03T12:12:30;1.20;;;0.00;;
13973;SDS011;7060;43.770;4.008;2023-04-03T12:15:12;0.30;;;0.10;;
13973;SDS011;7060;43.770;4.008;2023-04-03T12:21:20;0.70;;;0.30;;
13973;SDS011;7060;43.770;4.008;2023-04-03T12:23:57;0.00;;;0.00;;
13973;SDS011;7060;43.770;4.008;2023-04-03T12:26:30;0.87;;;0.00;;
13973;SDS011;7060;43.770;4.008;2023-04-03T12:29:17;0.10;;;0.10;;
13973;SDS011;7060;43.770;4.008;2023-04-03T12:31:55;0.00;;;0.00;;
13973;SDS011;7060;43.770;4.008;2023-04-03T12:34:40;0.00;;;0.00;;
13973;SDS011;7060;43.770;4.008;2023-04-03T12:37:29;0.17;;;0.10;;
13973;SDS011;7060;43.770;4.008;2023-04-03T12:40:15;1.30;;;0.10;;
13973;SDS011;7060;43.770;4.008;2023-04-03T12:45:48;0.20;;;0.10;;
13973;SDS011;7060;43.770;4.008;2023-04-03T12:48:22;0.00;;;0.00;;
13973;SDS011;7060;43.770;4.008;2023-04-03T12:50:53;0.43;;;0.10;;
13973;SDS011;7060;43.770;4.008;2023-04-03T12:53:25;1.27;;;0.00;;
13973;SDS011;7060;43.770;4.008;2023-04-03T12:55:57;0.10;;;0.00;;
13973;SDS011;7060;43.770;4.008;2023-04-03T12:58:49;0.37;;;0.10;;
13973;SDS011;7060;43.770;4.008;2023-04-03T13:01:21;1.40;;;0.13;;
13973;SDS011;7060;43.770;4.008;2023-04-03T13:03:52;0.10;;;0.00;;
13973;SDS011;7060;43.770;4.008;2023-04-03T13:06:24;0.20;;;0.10;;
13973;SDS011;7060;43.770;4.008;2023-04-03T13:08:56;0.23;;;0.10;;
13973;SDS011;7060;43.770;4.008;2023-04-03T13:11:27;0.20;;;0.10;;
13973;SDS011;7060;43.770;4.008;2023-04-03T13:14:00;0.27;;;0.10;;
13973;SDS011;7060;43.770;4.008;2023-04-03T13:16:33;0.03;;;0.03;;
13973;SDS011;7060;43.770;4.008;2023-04-03T13:19:01;0.03;;;0.00;;
13973;SDS011;7060;43.770;4.008;2023-04-03T13:21:30;0.40;;;0.20;;
13973;SDS011;7060;43.770;4.008;2023-04-03T13:24:02;0.47;;;0.10;;
13973;SDS011;7060;43.770;4.008;2023-04-03T13:26:41;0.00;;;0.00;;
13973;SDS011;7060;43.770;4.008;2023-04-03T13:29:18;1.33;;;0.30;;
13973;SDS011;7060;43.770;4.008;2023-04-03T13:31:59;3.57;;;0.30;;
13973;SDS011;7060;43.770;4.008;2023-04-03T13:34:29;10.87;;;0.53;;
13973;SDS011;7060;43.770;4.008;2023-04-03T13:37:04;1.80;;;0.40;;
13973;SDS011;7060;43.770;4.008;2023-04-03T13:39:35;0.10;;;0.10;;
13973;SDS011;7060;43.770;4.008;2023-04-03T13:42:14;0.10;;;0.10;;
13973;SDS011;7060;43.770;4.008;2023-04-03T13:44:44;0.43;;;0.10;;
13973;SDS011;7060;43.770;4.008;2023-04-03T13:47:17;0.40;;;0.10;;
13973;SDS011;7060;43.770;4.008;2023-04-03T13:49:58;0.10;;;0.10;;
13973;SDS011;7060;43.770;4.008;2023-04-03T13:52:29;0.37;;;0.10;;
13973;SDS011;7060;43.770;4.008;2023-04-03T13:55:03;0.57;;;0.10;;
13973;SDS011;7060;43.770;4.008;2023-04-03T13:57:52;0.97;;;0.10;;
13973;SDS011;7060;43.770;4.008;2023-04-03T14:00:30;0.10;;;0.10;;
13973;SDS011;7060;43.770;4.008;2023-04-03T14:03:13;0.20;;;0.10;;
13973;SDS011;7060;43.770;4.008;2023-04-03T14:05:46;0.30;;;0.10;;
13973;SDS011;7060;43.770;4.008;2023-04-03T14:08:15;0.10;;;0.10;;
13973;SDS011;7060;43.770;4.008;2023-04-03T14:10:52;0.33;;;0.03;;
13973;SDS011;7060;43.770;4.008;2023-04-03T14:13:21;0.63;;;0.10;;
13973;SDS011;7060;43.770;4.008;2023-04-03T14:15:50;0.13;;;0.00;;
13973;SDS011;7060;43.770;4.008;2023-04-03T14:18:23;0.10;;;0.10;;
13973;SDS011;7060;43.770;4.008;2023-04-03T14:20:51;0.00;;;0.00;;
13973;SDS011;7060;43.770;4.008;2023-04-03T14:23:20;0.00;;;0.00;;
13973;SDS011;7060;43.770;4.008;2023-04-03T14:25:48;0.13;;;0.10;;
13973;SDS011;7060;43.770;4.008;2023-04-03T14:28:18;1.27;;;0.20;;
13973;SDS011;7060;43.770;4.008;2023-04-03T14:30:48;2.30;;;0.10;;
13973;SDS011;7060;43.770;4.008;2023-04-03T14:33:19;1.60;;;0.10;;
13973;SDS011;7060;43.770;4.008;2023-04-03T14:35:55;0.00;;;0.00;;
13973;SDS011;7060;43.770;4.008;2023-04-03T14:38:24;1.23;;;0.00;;
13973;SDS011;7060;43.770;4.008;2023-04-03T14:40:55;0.20;;;0.10;;
13973;SDS011;7060;43.770;4.008;2023-04-03T14:43:40;0.00;;;0.00;;
13973;SDS011;7060;43.770;4.008;2023-04-03T14:46:13;0.10;;;0.10;;
13973;SDS011;7060;43.770;4.008;2023-04-03T14:48:43;0.30;;;0.10;;
13973;SDS011;7060;43.770;4.008;2023-04-03T14:51:14;0.10;;;0.10;;
13973;SDS011;7060;43.770;4.008;2023-04-03T14:53:43;0.10;;;0.10;;
13973;SDS011;7060;43.770;4.008;2023-04-03T14:56:13;0.33;;;0.10;;
13973;SDS011;7060;43.770;4.008;2023-04-03T14:58:44;0.20;;;0.10;;
13973;SDS011;7060;43.770;4.008;2023-04-03T15:01:16;0.30;;;0.10;;
13973;SDS011;7060;43.770;4.008;2023-04-03T15:03:44;0.20;;;0.10;;
13973;SDS011;7060;43.770;4.008;2023-04-03T15:06:14;1.40;;;0.10;;
13973;SDS011;7060;43.770;4.008;2023-04-03T15:08:45;0.00;;;0.00;;
13973;SDS011;7060;43.770;4.008;2023-04-03T15:11:14;1.03;;;0.20;;
13973;SDS011;7060;43.770;4.008;2023-04-03T15:13:43;0.40;;;0.10;;
13973;SDS011;7060;43.770;4.008;2023-04-03T15:16:14;1.33;;;0.20;;
13973;SDS011;7060;43.770;4.008;2023-04-03T15:18:46;0.17;;;0.10;;
13973;SDS011;7060;43.770;4.008;2023-04-03T15:21:16;0.20;;;0.10;;
13973;SDS011;7060;43.770;4.008;2023-04-03T15:23:45;0.20;;;0.00;;
13973;SDS011;7060;43.770;4.008;2023-04-03T15:26:13;1.17;;;0.10;;
13973;SDS011;7060;43.770;4.008;2023-04-03T15:28:42;0.70;;;0.13;;
13973;SDS011;7060;43.770;4.008;2023-04-03T15:31:11;0.87;;;0.30;;
13973;SDS011;7060;43.770;4.008;2023-04-03T15:33:40;0.23;;;0.10;;
13973;SDS011;7060;43.770;4.008;2023-04-03T15:36:08;0.20;;;0.10;;
13973;SDS011;7060;43.770;4.008;2023-04-03T15:38:58;0.30;;;0.17;;
13973;SDS011;7060;43.770;4.008;2023-04-03T15:41:27;0.83;;;0.20;;
13973;SDS011;7060;43.770;4.008;2023-04-03T15:43:55;0.20;;;0.10;;
13973;SDS011;7060;43.770;4.008;2023-04-03T15:46:24;2.47;;;0.20;;
13973;SDS011;7060;43.770;4.008;2023-04-03T15:48:53;0.30;;;0.10;;